createdAt,value
2018-06-01T00:16:49.827Z,26.33
2018-06-01T00:26:51.182Z,27.33
2018-06-01T00:36:53.301Z,27.63
2018-06-01T00:46:55.418Z,28.40
2018-06-01T00:56:57.548Z,27.60
2018-06-01T01:06:58.873Z,24.80
2018-06-01T01:17:00.218Z,26.03
2018-06-01T01:27:02.306Z,27.67
2018-06-01T01:37:03.645Z,25.00
2018-06-01T01:47:04.974Z,25.23
2018-06-01T01:57:06.323Z,27.13
2018-06-01T02:07:08.457Z,26.33
2018-06-01T02:17:09.838Z,26.67
2018-06-01T02:27:11.973Z,25.47
2018-06-01T02:37:13.327Z,26.87
2018-06-01T02:47:14.696Z,25.90
2018-06-01T02:57:17.131Z,26.17
2018-06-01T03:07:18.492Z,25.33
2018-06-01T03:17:19.823Z,23.87
2018-06-01T03:27:21.154Z,25.73
2018-06-01T03:37:22.477Z,25.47
2018-06-01T03:47:23.816Z,24.80
2018-06-01T03:57:25.191Z,23.70
2018-06-01T04:07:26.546Z,21.97
2018-06-01T04:17:27.908Z,21.43
2018-06-01T04:27:29.257Z,20.33
2018-06-01T04:47:37.862Z,18.97
2018-06-01T04:57:39.189Z,18.13
2018-06-01T05:07:40.521Z,17.93
2018-06-01T05:17:41.865Z,16.60
2018-06-01T05:27:43.966Z,18.73
2018-06-01T05:57:58.927Z,68.70
2018-06-01T06:08:00.282Z,14.37
2018-06-01T06:18:01.643Z,14.03
2018-06-01T06:38:09.860Z,12.13
2018-06-01T06:48:11.960Z,11.53
2018-06-01T06:58:14.064Z,11.80
2018-06-01T07:08:15.384Z,11.12
2018-06-01T07:18:17.547Z,11.68
2018-06-01T07:28:18.866Z,12.85
2018-06-01T07:38:20.214Z,13.35
2018-06-01T07:48:21.556Z,11.60
2018-06-01T07:58:22.913Z,9.80
2018-06-01T08:48:51.319Z,9.85
2018-06-01T08:58:53.458Z,11.27
2018-06-01T09:08:54.816Z,10.45
2018-06-01T09:18:56.171Z,10.65
2018-06-01T09:28:57.518Z,8.68
2018-06-01T09:49:05.663Z,9.95
2018-06-01T09:59:07.019Z,9.23
2018-06-01T10:09:08.449Z,7.78
2018-06-01T10:19:09.821Z,8.82
2018-06-01T10:49:25.249Z,10.73
2018-06-01T10:59:26.569Z,10.20
2018-06-01T11:09:27.907Z,8.70
2018-06-01T11:19:29.232Z,7.87
2018-06-01T11:29:30.545Z,7.47
2018-06-01T11:39:32.670Z,5.43
2018-06-01T11:59:42.091Z,5.57
2018-06-01T12:09:43.471Z,6.00
2018-06-01T12:29:57.734Z,5.63
2018-06-01T12:39:59.086Z,6.03
2018-06-01T12:50:00.452Z,7.70
2018-06-01T13:00:01.846Z,7.17
2018-06-01T13:10:03.179Z,8.23
2018-06-01T13:20:04.494Z,8.73
2018-06-01T13:30:05.821Z,8.57
2018-06-01T13:40:07.201Z,9.23
2018-06-01T13:50:08.552Z,9.37
2018-06-01T14:00:10.675Z,8.40
2018-06-01T14:10:12.032Z,9.67
2018-06-01T14:20:15.280Z,10.00
2018-06-01T14:30:16.643Z,11.27
2018-06-01T14:40:18.006Z,8.50
2018-06-01T14:50:20.336Z,9.30
2018-06-01T15:00:21.651Z,9.20
2018-06-01T15:10:23.978Z,9.30
2018-06-01T15:20:25.320Z,9.27
2018-06-01T15:30:26.675Z,9.63
2018-06-01T15:40:28.035Z,8.60
2018-06-01T15:50:30.155Z,7.83
2018-06-01T16:00:36.493Z,8.70
2018-06-01T16:10:37.851Z,7.73
2018-06-01T16:20:39.216Z,8.90
2018-06-01T16:30:40.577Z,7.83
2018-06-01T16:40:43.943Z,8.83
2018-06-01T16:50:45.290Z,9.77
2018-06-01T17:00:46.611Z,9.07
2018-06-01T17:20:54.471Z,9.63
2018-06-01T17:30:55.781Z,9.03
2018-06-01T17:40:57.153Z,9.50
2018-06-01T17:50:58.519Z,9.63
2018-06-01T18:00:59.864Z,9.53
2018-06-01T18:11:01.254Z,12.87
2018-06-01T18:21:03.379Z,8.43
2018-06-01T18:31:04.744Z,7.90
2018-06-01T18:41:06.062Z,7.90
2018-06-01T18:51:08.155Z,7.70
2018-06-01T19:01:09.478Z,8.43
2018-06-01T19:11:11.566Z,8.90
2018-06-01T19:21:12.909Z,9.70
2018-06-01T19:31:14.423Z,10.07
2018-06-01T19:41:15.826Z,11.83
2018-06-01T19:51:18.257Z,15.77
2018-06-01T20:01:19.625Z,11.10
2018-06-01T20:11:20.993Z,10.97
2018-06-01T20:21:22.336Z,11.10
2018-06-01T20:31:23.707Z,10.17
2018-06-01T20:41:25.833Z,8.07
2018-06-01T20:51:27.225Z,9.60
2018-06-01T21:01:28.505Z,8.47
2018-06-01T21:11:30.614Z,10.93
2018-06-01T21:21:32.698Z,9.50
2018-06-01T21:31:34.055Z,10.20
2018-06-01T21:41:35.417Z,11.63
2018-06-01T21:51:36.758Z,10.70
2018-06-01T22:01:38.109Z,10.43
2018-06-01T22:11:39.457Z,9.73
2018-06-01T22:21:40.820Z,10.77
2018-06-01T22:31:42.964Z,9.60
2018-06-01T22:41:44.278Z,9.33
2018-06-01T22:51:45.631Z,10.43
2018-06-01T23:01:47.725Z,8.97
2018-06-01T23:11:49.036Z,9.20
2018-06-01T23:21:51.245Z,10.10
2018-06-01T23:31:52.599Z,9.53
2018-06-01T23:41:53.955Z,9.30
2018-06-01T23:51:55.301Z,10.03
